createdAt,value
2023-02-18T00:00:56.371Z,1001.70
2023-02-18T00:01:56.377Z,1001.75
2023-02-18T00:02:56.358Z,1001.75
2023-02-18T00:03:56.383Z,1001.70
2023-02-18T00:04:56.361Z,1001.67
2023-02-18T00:05:56.324Z,1001.68
2023-02-18T00:06:56.324Z,1001.62
2023-02-18T00:07:56.300Z,1001.63
2023-02-18T00:08:56.308Z,1001.67
2023-02-18T00:09:56.268Z,1001.67
2023-02-18T00:10:56.259Z,1001.64
2023-02-18T00:11:56.265Z,1001.63
2023-02-18T00:12:56.235Z,1001.65
2023-02-18T00:13:56.259Z,1001.62
2023-02-18T00:14:56.215Z,1001.61
2023-02-18T00:15:56.254Z,1001.61
2023-02-18T00:16:56.195Z,1001.59
2023-02-18T00:17:56.175Z,1001.53
2023-02-18T00:18:56.184Z,1001.53
2023-02-18T00:19:56.152Z,1001.52
2023-02-18T00:20:56.163Z,1001.52
2023-02-18T00:21:56.171Z,1001.49
2023-02-18T00:22:56.133Z,1001.47
2023-02-18T00:23:56.137Z,1001.49
2023-02-18T00:24:56.102Z,1001.47
2023-02-18T00:25:56.109Z,1001.45
2023-02-18T00:26:56.098Z,1001.44
2023-02-18T00:27:56.082Z,1001.41
2023-02-18T00:28:56.144Z,1001.40
2023-02-18T00:29:56.129Z,1001.41
2023-02-18T00:30:56.055Z,1001.42
2023-02-18T00:31:56.179Z,1001.40
2023-02-18T00:32:56.007Z,1001.44
2023-02-18T00:33:56.018Z,1001.47
2023-02-18T00:34:55.993Z,1001.42
2023-02-18T00:35:55.988Z,1001.45
2023-02-18T00:36:55.963Z,1001.48
2023-02-18T00:37:55.967Z,1001.44
2023-02-18T00:38:56.083Z,1001.47
2023-02-18T00:39:55.931Z,1001.46
2023-02-18T00:40:55.939Z,1001.47
2023-02-18T00:41:55.908Z,1001.46
2023-02-18T00:42:55.896Z,1001.41
2023-02-18T00:43:55.911Z,1001.38
2023-02-18T00:44:55.880Z,1001.35
2023-02-18T00:45:55.896Z,1001.33
2023-02-18T00:46:55.851Z,1001.35
2023-02-18T00:47:55.856Z,1001.32
2023-02-18T00:48:55.872Z,1001.31
2023-02-18T00:49:55.847Z,1001.33
2023-02-18T00:50:55.827Z,1001.30
2023-02-18T00:51:55.792Z,1001.30
2023-02-18T00:52:55.793Z,1001.31
2023-02-18T00:53:55.773Z,1001.24
2023-02-18T00:54:55.762Z,1001.23
2023-02-18T00:55:55.776Z,1001.22
2023-02-18T00:56:55.752Z,1001.17
2023-02-18T00:57:55.726Z,1001.17
2023-02-18T00:58:55.721Z,1001.21
2023-02-18T00:59:55.736Z,1001.25
2023-02-18T01:00:55.698Z,1001.23
2023-02-18T01:01:55.758Z,1001.19
2023-02-18T01:02:55.669Z,1001.19
2023-02-18T01:03:55.682Z,1001.25
2023-02-18T01:04:55.724Z,1001.23
2023-02-18T01:05:55.640Z,1001.27
2023-02-18T01:06:55.637Z,1001.25
2023-02-18T01:07:55.621Z,1001.24
2023-02-18T01:08:55.639Z,1001.24
2023-02-18T01:09:55.614Z,1001.29
2023-02-18T01:10:55.599Z,1001.27
2023-02-18T01:11:55.600Z,1001.22
2023-02-18T01:12:55.579Z,1001.20
2023-02-18T01:13:55.555Z,1001.16
2023-02-18T01:14:55.542Z,1001.20
2023-02-18T01:15:55.601Z,1001.20
2023-02-18T01:16:55.553Z,1001.15
2023-02-18T01:17:55.508Z,1001.18
2023-02-18T01:18:55.503Z,1001.21
2023-02-18T01:19:55.527Z,1001.19
2023-02-18T01:20:55.477Z,1001.19
2023-02-18T01:21:58.614Z,1001.18
2023-02-18T01:22:55.453Z,1001.22
2023-02-18T01:23:55.445Z,1001.20
2023-02-18T01:24:55.433Z,1001.23
2023-02-18T01:25:55.464Z,1001.17
2023-02-18T01:26:55.412Z,1001.19
2023-02-18T01:27:55.432Z,1001.22
2023-02-18T01:28:55.393Z,1001.19
2023-02-18T01:29:55.373Z,1001.17
2023-02-18T01:30:55.474Z,1001.18
2023-02-18T01:31:55.561Z,1001.18
2023-02-18T01:32:55.340Z,1001.16
2023-02-18T01:33:55.335Z,1001.14
2023-02-18T01:34:55.321Z,1001.19
2023-02-18T01:35:55.343Z,1001.21
2023-02-18T01:36:55.316Z,1001.28
2023-02-18T01:37:55.394Z,1001.27
2023-02-18T01:38:55.273Z,1001.30
2023-02-18T01:39:55.306Z,1001.34
2023-02-18T01:40:55.255Z,1001.34
2023-02-18T01:41:55.261Z,1001.35
2023-02-18T01:42:55.268Z,1001.34
2023-02-18T01:43:55.210Z,1001.36
2023-02-18T01:44:55.196Z,1001.39
2023-02-18T01:45:55.198Z,1001.41
2023-02-18T01:46:55.278Z,1001.37
2023-02-18T01:47:55.185Z,1001.33
2023-02-18T01:48:55.179Z,1001.32
2023-02-18T01:49:55.140Z,1001.28
2023-02-18T01:50:55.141Z,1001.27
2023-02-18T01:51:55.173Z,1001.28
2023-02-18T01:52:55.131Z,1001.21
2023-02-18T01:53:55.125Z,1001.16
2023-02-18T01:54:55.133Z,1001.12
2023-02-18T01:55:55.076Z,1001.13
2023-02-18T01:56:55.068Z,1001.12
2023-02-18T01:57:55.059Z,1001.11
2023-02-18T01:58:55.065Z,1001.13
2023-02-18T01:59:55.054Z,1001.16
2023-02-18T02:00:55.087Z,1001.15
2023-02-18T02:01:55.035Z,1001.12
2023-02-18T02:02:55.012Z,1001.12
2023-02-18T02:03:55.001Z,1001.10
2023-02-18T02:04:55.021Z,1001.11
2023-02-18T02:05:54.966Z,1001.06
2023-02-18T02:06:54.947Z,1001.01
2023-02-18T02:07:54.960Z,1000.96
2023-02-18T02:08:54.924Z,1000.91
2023-02-18T02:09:54.932Z,1000.91
2023-02-18T02:10:54.915Z,1000.90
2023-02-18T02:11:54.903Z,1000.89
2023-02-18T02:12:54.893Z,1000.88
2023-02-18T02:13:54.882Z,1000.89
2023-02-18T02:14:54.892Z,1000.88
2023-02-18T02:15:54.867Z,1000.85
2023-02-18T02:16:54.835Z,1000.82
2023-02-18T02:17:54.824Z,1000.82
2023-02-18T02:18:54.836Z,1000.79
2023-02-18T02:19:54.821Z,1000.83
2023-02-18T02:20:54.791Z,1000.81
2023-02-18T02:21:54.794Z,1000.79
2023-02-18T02:22:54.773Z,1000.81
2023-02-18T02:23:54.785Z,1000.83
2023-02-18T02:24:54.811Z,1000.84
2023-02-18T02:25:54.733Z,1000.79
2023-02-18T02:26:54.733Z,1000.85
2023-02-18T02:27:54.712Z,1000.85
2023-02-18T02:28:54.700Z,1000.91
2023-02-18T02:29:54.708Z,1000.83
2023-02-18T02:30:54.779Z,1000.78
2023-02-18T02:31:54.758Z,1000.76
2023-02-18T02:32:54.663Z,1000.75
2023-02-18T02:33:54.642Z,1000.78
2023-02-18T02:34:54.643Z,1000.77
2023-02-18T02:35:54.641Z,1000.74
2023-02-18T02:36:54.611Z,1000.74
2023-02-18T02:37:54.606Z,1000.67
2023-02-18T02:38:54.609Z,1000.66
2023-02-18T02:39:54.650Z,1000.67
2023-02-18T02:40:54.581Z,1000.67
2023-02-18T02:41:54.558Z,1000.67
2023-02-18T02:42:54.559Z,1000.68
2023-02-18T02:43:54.556Z,1000.67
2023-02-18T02:44:54.523Z,1000.63
2023-02-18T02:45:54.550Z,1000.57
2023-02-18T02:46:54.497Z,1000.53
2023-02-18T02:47:54.499Z,1000.51
2023-02-18T02:48:54.513Z,1000.52
2023-02-18T02:49:54.487Z,1000.50
2023-02-18T02:50:54.506Z,1000.48
2023-02-18T02:51:54.449Z,1000.44
2023-02-18T02:52:54.443Z,1000.44
2023-02-18T02:53:54.445Z,1000.45
2023-02-18T02:54:54.448Z,1000.40
2023-02-18T02:55:54.515Z,1000.43
2023-02-18T02:56:54.388Z,1000.41
2023-02-18T02:57:54.382Z,1000.39
2023-02-18T02:58:54.382Z,1000.37
2023-02-18T02:59:54.357Z,1000.38
2023-02-18T03:00:54.401Z,1000.37
2023-02-18T03:01:54.368Z,1000.37
2023-02-18T03:02:54.379Z,1000.37
2023-02-18T03:03:54.315Z,1000.42
2023-02-18T03:04:54.328Z,1000.41
2023-02-18T03:05:54.334Z,1000.43
2023-02-18T03:06:54.288Z,1000.37
2023-02-18T03:07:54.283Z,1000.42
2023-02-18T03:08:54.254Z,1000.34
2023-02-18T03:09:54.246Z,1000.31
2023-02-18T03:10:54.288Z,1000.27
2023-02-18T03:11:54.265Z,1000.27
2023-02-18T03:12:54.211Z,1000.28
2023-02-18T03:13:54.203Z,1000.24
2023-02-18T03:14:54.191Z,1000.25
2023-02-18T03:15:54.195Z,1000.23
2023-02-18T03:16:54.179Z,1000.24
2023-02-18T03:17:54.156Z,1000.22
2023-02-18T03:18:54.142Z,1000.27
2023-02-18T03:19:54.149Z,1000.22
2023-02-18T03:20:54.139Z,1000.23
2023-02-18T03:21:54.129Z,1000.22
2023-02-18T03:22:54.117Z,1000.19
2023-02-18T03:23:54.107Z,1000.22
2023-02-18T03:24:54.075Z,1000.21
2023-02-18T03:25:54.087Z,1000.18
2023-02-18T03:26:54.066Z,1000.17
2023-02-18T03:27:54.065Z,1000.16
2023-02-18T03:28:54.037Z,1000.20
2023-02-18T03:29:54.083Z,1000.16
2023-02-18T03:30:54.005Z,1000.15
2023-02-18T03:31:54.143Z,1000.12
2023-02-18T03:32:54.009Z,1000.05
2023-02-18T03:33:53.976Z,1000.04
2023-02-18T03:34:53.968Z,1000.04
2023-02-18T03:35:53.952Z,1000.02
2023-02-18T03:36:53.956Z,1000.00
2023-02-18T03:37:53.931Z,999.98
2023-02-18T03:38:53.928Z,999.90
2023-02-18T03:39:53.914Z,999.90
2023-02-18T03:40:53.930Z,999.93
2023-02-18T03:41:53.892Z,999.94
2023-02-18T03:42:53.896Z,999.93
2023-02-18T03:43:53.899Z,999.93
2023-02-18T03:44:53.852Z,999.87
2023-02-18T03:45:53.939Z,999.91
2023-02-18T03:46:53.866Z,999.86
2023-02-18T03:47:53.879Z,999.91
2023-02-18T03:48:53.812Z,999.87
2023-02-18T03:49:53.815Z,999.77
2023-02-18T03:50:53.890Z,999.84
2023-02-18T03:51:53.774Z,999.82
2023-02-18T03:52:53.765Z,999.82
2023-02-18T03:53:53.941Z,999.80
2023-02-18T03:54:53.769Z,999.77
2023-02-18T03:55:53.758Z,999.71
2023-02-18T03:56:53.924Z,999.73
2023-02-18T03:57:53.717Z,999.71
2023-02-18T03:58:53.716Z,999.64
2023-02-18T03:59:53.864Z,999.69
2023-02-18T04:00:53.835Z,999.67
2023-02-18T04:01:53.666Z,999.67
2023-02-18T04:02:53.654Z,999.62
2023-02-18T04:03:53.663Z,999.60
2023-02-18T04:04:53.631Z,999.54
2023-02-18T04:05:53.621Z,999.56
2023-02-18T04:06:53.619Z,999.53
2023-02-18T04:07:53.605Z,999.43
2023-02-18T04:08:53.611Z,999.44
2023-02-18T04:09:53.586Z,999.47
2023-02-18T04:10:53.554Z,999.41
2023-02-18T04:11:53.542Z,999.41
2023-02-18T04:12:53.538Z,999.42
2023-02-18T04:13:53.551Z,999.42
2023-02-18T04:14:53.517Z,999.41
2023-02-18T04:15:53.532Z,999.40
2023-02-18T04:16:53.580Z,999.37
2023-02-18T04:17:53.474Z,999.32
2023-02-18T04:18:53.459Z,999.34
2023-02-18T04:19:53.473Z,999.31
2023-02-18T04:20:53.458Z,999.31
2023-02-18T04:21:53.433Z,999.31
2023-02-18T04:22:53.417Z,999.31
2023-02-18T04:23:53.430Z,999.34
2023-02-18T04:24:53.408Z,999.35
2023-02-18T04:25:53.402Z,999.32
2023-02-18T04:26:53.410Z,999.36
2023-02-18T04:27:53.364Z,999.33
2023-02-18T04:28:53.385Z,999.34
2023-02-18T04:29:53.349Z,999.31
2023-02-18T04:30:53.353Z,999.31
2023-02-18T04:31:53.396Z,999.27
2023-02-18T04:32:53.310Z,999.29
2023-02-18T04:33:53.318Z,999.28
2023-02-18T04:34:53.299Z,999.29
2023-02-18T04:35:53.328Z,999.30
2023-02-18T04:36:53.265Z,999.33
2023-02-18T04:37:53.252Z,999.29
2023-02-18T04:38:53.245Z,999.32
2023-02-18T04:39:53.257Z,999.31
2023-02-18T04:40:53.225Z,999.31
2023-02-18T04:41:53.203Z,999.28
2023-02-18T04:42:53.214Z,999.23
2023-02-18T04:43:53.191Z,999.20
2023-02-18T04:44:53.191Z,999.22
2023-02-18T04:45:53.221Z,999.19
2023-02-18T04:46:53.164Z,999.18
2023-02-18T04:47:53.194Z,999.21
2023-02-18T04:48:53.153Z,999.23
2023-02-18T04:49:53.117Z,999.20
2023-02-18T04:50:53.131Z,999.21
2023-02-18T04:51:53.109Z,999.15
2023-02-18T04:52:53.087Z,999.14
2023-02-18T04:53:53.091Z,999.14
2023-02-18T04:54:53.061Z,999.14
2023-02-18T04:55:53.081Z,999.06
2023-02-18T04:56:53.037Z,999.06
2023-02-18T04:57:53.033Z,999.03
2023-02-18T04:58:53.013Z,999.03
2023-02-18T04:59:53.077Z,998.99
2023-02-18T05:00:53.026Z,998.98
2023-02-18T05:01:52.987Z,999.05
2023-02-18T05:02:52.988Z,998.99
2023-02-18T05:03:53.037Z,999.03
2023-02-18T05:04:52.987Z,999.03
2023-02-18T05:05:52.977Z,999.03
2023-02-18T05:06:52.944Z,999.02
2023-02-18T05:07:52.916Z,999.02
2023-02-18T05:08:52.936Z,998.97
2023-02-18T05:09:52.894Z,998.93
2023-02-18T05:10:52.886Z,998.90
2023-02-18T05:11:52.893Z,998.88
2023-02-18T05:12:52.896Z,998.89
2023-02-18T05:13:52.852Z,998.88
2023-02-18T05:14:52.839Z,998.88
2023-02-18T05:15:52.954Z,998.80
2023-02-18T05:16:52.824Z,998.81
2023-02-18T05:17:52.812Z,998.79
2023-02-18T05:18:52.819Z,998.78
2023-02-18T05:19:52.817Z,998.75
2023-02-18T05:20:52.783Z,998.75
2023-02-18T05:21:52.766Z,998.76
2023-02-18T05:22:52.794Z,998.75
2023-02-18T05:23:52.744Z,998.79
2023-02-18T05:24:52.752Z,998.75
2023-02-18T05:25:52.778Z,998.72
2023-02-18T05:26:52.713Z,998.73
2023-02-18T05:27:52.703Z,998.68
2023-02-18T05:28:52.716Z,998.65
2023-02-18T05:29:52.671Z,998.65
2023-02-18T05:30:52.683Z,998.61
2023-02-18T05:31:52.762Z,998.64
2023-02-18T05:32:52.675Z,998.55
2023-02-18T05:33:52.644Z,998.61
2023-02-18T05:34:52.651Z,998.60
2023-02-18T05:35:52.617Z,998.55
2023-02-18T05:36:52.592Z,998.49
2023-02-18T05:37:52.581Z,998.49
2023-02-18T05:38:52.575Z,998.52
2023-02-18T05:39:52.559Z,998.52
2023-02-18T05:40:52.563Z,998.51
2023-02-18T05:41:52.534Z,998.55
2023-02-18T05:42:52.526Z,998.52
2023-02-18T05:43:52.517Z,998.43
2023-02-18T05:44:52.515Z,998.45
2023-02-18T05:45:52.524Z,998.41
2023-02-18T05:46:52.474Z,998.44
2023-02-18T05:47:52.464Z,998.42
2023-02-18T05:48:52.468Z,998.39
2023-02-18T05:49:52.450Z,998.40
2023-02-18T05:50:52.470Z,998.43
2023-02-18T05:51:52.442Z,998.36
2023-02-18T05:52:52.411Z,998.37
2023-02-18T05:53:52.401Z,998.39
2023-02-18T05:54:52.408Z,998.48
2023-02-18T05:55:52.377Z,998.42
2023-02-18T05:56:52.401Z,998.47
2023-02-18T05:57:52.354Z,998.43
2023-02-18T05:58:52.375Z,998.42
2023-02-18T05:59:52.355Z,998.34
2023-02-18T06:00:52.324Z,998.34
2023-02-18T06:01:52.332Z,998.40
2023-02-18T06:02:52.340Z,998.35
2023-02-18T06:03:52.303Z,998.37
2023-02-18T06:04:52.300Z,998.38
2023-02-18T06:05:52.283Z,998.35
2023-02-18T06:06:52.285Z,998.28
2023-02-18T06:07:52.264Z,998.31
2023-02-18T06:08:52.246Z,998.30
2023-02-18T06:09:52.218Z,998.25
2023-02-18T06:10:52.249Z,998.20
2023-02-18T06:11:52.215Z,998.17
2023-02-18T06:12:52.187Z,998.26
2023-02-18T06:13:52.173Z,998.20
2023-02-18T06:14:52.168Z,998.18
2023-02-18T06:15:52.189Z,998.22
2023-02-18T06:16:52.156Z,998.18
2023-02-18T06:17:52.128Z,998.19
2023-02-18T06:18:52.120Z,998.22
2023-02-18T06:19:52.146Z,998.16
2023-02-18T06:20:52.107Z,998.17
2023-02-18T06:21:52.091Z,998.17
2023-02-18T06:22:52.077Z,998.19
2023-02-18T06:23:52.092Z,998.14
2023-02-18T06:24:52.047Z,998.08
2023-02-18T06:25:52.034Z,998.08
2023-02-18T06:26:52.047Z,998.11
2023-02-18T06:27:52.018Z,998.10
2023-02-18T06:28:52.020Z,998.07
2023-02-18T06:29:52.003Z,998.07
2023-02-18T06:30:51.981Z,998.07
2023-02-18T06:31:52.044Z,998.06
2023-02-18T06:32:51.956Z,998.06
2023-02-18T06:33:51.962Z,998.03
2023-02-18T06:34:51.933Z,998.03
2023-02-18T06:35:51.946Z,998.01
2023-02-18T06:36:51.920Z,997.98
2023-02-18T06:37:51.896Z,998.01
2023-02-18T06:38:51.884Z,997.94
2023-02-18T06:39:51.916Z,997.93
2023-02-18T06:40:51.881Z,997.93
2023-02-18T06:41:51.849Z,997.94
2023-02-18T06:42:51.836Z,997.89
2023-02-18T06:43:51.880Z,997.88
2023-02-18T06:44:51.828Z,997.89
2023-02-18T06:45:51.806Z,997.84
2023-02-18T06:46:51.846Z,997.83
2023-02-18T06:47:51.806Z,997.87
2023-02-18T06:48:51.784Z,997.89
2023-02-18T06:49:51.763Z,997.89
2023-02-18T06:50:51.747Z,997.89
2023-02-18T06:51:51.787Z,997.89
2023-02-18T06:52:51.730Z,997.89
2023-02-18T06:53:51.728Z,997.89
2023-02-18T06:54:51.714Z,997.84
2023-02-18T06:55:51.713Z,997.86
2023-02-18T06:56:51.704Z,997.79
2023-02-18T06:57:51.688Z,997.76
2023-02-18T06:58:51.652Z,997.81
2023-02-18T06:59:51.642Z,997.83
2023-02-18T07:00:51.718Z,997.83
2023-02-18T07:01:51.630Z,997.81
2023-02-18T07:02:51.612Z,997.77
2023-02-18T07:03:51.619Z,997.79
2023-02-18T07:04:51.679Z,997.77
2023-02-18T07:05:51.577Z,997.76
2023-02-18T07:06:51.649Z,997.73
2023-02-18T07:07:51.561Z,997.72
2023-02-18T07:08:51.575Z,997.65
2023-02-18T07:09:51.534Z,997.60
2023-02-18T07:10:51.526Z,997.64
2023-02-18T07:11:51.526Z,997.61
2023-02-18T07:12:51.665Z,997.59
2023-02-18T07:13:51.545Z,997.58
2023-02-18T07:14:51.501Z,997.56
2023-02-18T07:15:51.489Z,997.52
2023-02-18T07:16:51.451Z,997.51
2023-02-18T07:17:51.445Z,997.47
2023-02-18T07:18:51.453Z,997.46
2023-02-18T07:19:51.428Z,997.41
2023-02-18T07:20:51.425Z,997.44
2023-02-18T07:21:51.390Z,997.42
2023-02-18T07:22:51.405Z,997.40
2023-02-18T07:23:51.396Z,997.37
2023-02-18T07:24:51.360Z,997.39
2023-02-18T07:25:51.363Z,997.42
2023-02-18T07:26:51.368Z,997.47
2023-02-18T07:27:51.347Z,997.47
2023-02-18T07:28:51.322Z,997.47
2023-02-18T07:29:51.322Z,997.47
2023-02-18T07:30:51.346Z,997.44
2023-02-18T07:31:51.391Z,997.43
2023-02-18T07:32:51.275Z,997.49
2023-02-18T07:33:51.273Z,997.46
2023-02-18T07:34:51.326Z,997.45
2023-02-18T07:35:51.236Z,997.41
2023-02-18T07:36:51.265Z,997.49
2023-02-18T07:37:51.247Z,997.47
2023-02-18T07:38:51.210Z,997.50
2023-02-18T07:39:51.191Z,997.43
2023-02-18T07:40:51.196Z,997.47
2023-02-18T07:41:51.171Z,997.42
2023-02-18T07:42:51.193Z,997.43
2023-02-18T07:43:51.219Z,997.49
2023-02-18T07:44:51.140Z,997.45
2023-02-18T07:45:51.155Z,997.37
2023-02-18T07:46:51.107Z,997.42
2023-02-18T07:47:51.125Z,997.39
2023-02-18T07:48:51.102Z,997.36
2023-02-18T07:49:51.081Z,997.39
2023-02-18T07:50:51.068Z,997.34
2023-02-18T07:51:51.059Z,997.27
2023-02-18T07:52:51.069Z,997.26
2023-02-18T07:53:51.036Z,997.17
2023-02-18T07:54:51.053Z,997.21
2023-02-18T07:55:51.189Z,997.19
2023-02-18T07:56:51.000Z,997.24
2023-02-18T07:57:51.012Z,997.20
2023-02-18T07:58:50.978Z,997.21
2023-02-18T07:59:50.987Z,997.17
2023-02-18T08:00:51.004Z,997.14
2023-02-18T08:01:50.985Z,997.11
2023-02-18T08:02:50.955Z,997.17
2023-02-18T08:03:50.948Z,997.09
2023-02-18T08:04:50.948Z,997.11
2023-02-18T08:05:50.921Z,997.14
2023-02-18T08:06:50.884Z,997.09
2023-02-18T08:07:50.875Z,997.14
2023-02-18T08:08:50.877Z,997.16
2023-02-18T08:09:51.146Z,997.09
2023-02-18T08:10:50.906Z,997.14
2023-02-18T08:11:50.833Z,997.09
2023-02-18T08:12:50.838Z,997.11
2023-02-18T08:13:50.821Z,997.09
2023-02-18T08:14:50.792Z,997.16
2023-02-18T08:15:50.822Z,997.15
2023-02-18T08:16:50.809Z,997.13
2023-02-18T08:17:50.799Z,997.14
2023-02-18T08:18:50.774Z,997.12
2023-02-18T08:19:50.744Z,997.14
2023-02-18T08:20:50.762Z,997.17
2023-02-18T08:21:50.750Z,997.19
2023-02-18T08:22:50.701Z,997.24
2023-02-18T08:23:50.764Z,997.16
2023-02-18T08:24:50.693Z,997.18
2023-02-18T08:25:50.687Z,997.10
2023-02-18T08:27:00.496Z,997.12
2023-02-18T08:27:51.645Z,997.08
2023-02-18T08:28:50.640Z,997.07
2023-02-18T08:29:50.644Z,997.03
2023-02-18T08:30:50.641Z,997.08
2023-02-18T08:31:50.805Z,997.04
2023-02-18T08:32:50.638Z,997.09
2023-02-18T08:33:50.606Z,997.00
2023-02-18T08:34:50.570Z,996.95
2023-02-18T08:35:50.567Z,996.96
2023-02-18T08:36:50.600Z,996.97
2023-02-18T08:37:52.516Z,996.92
2023-02-18T08:38:50.566Z,996.97
2023-02-18T08:39:50.516Z,997.01
2023-02-18T08:40:50.537Z,996.96
2023-02-18T08:41:50.492Z,996.96
2023-02-18T08:42:50.485Z,996.93
2023-02-18T08:43:50.499Z,996.95
2023-02-18T08:44:50.474Z,996.95
2023-02-18T08:45:50.479Z,996.90
2023-02-18T08:46:50.550Z,996.92
2023-02-18T08:48:17.979Z,996.85
2023-02-18T08:48:51.438Z,996.93
2023-02-18T08:49:50.399Z,996.91
2023-02-18T08:50:50.425Z,996.85
2023-02-18T08:51:50.381Z,996.90
2023-02-18T08:52:50.371Z,996.88
2023-02-18T08:53:50.372Z,996.90
2023-02-18T08:54:50.356Z,996.93
2023-02-18T08:55:50.360Z,996.87
2023-02-18T08:56:50.371Z,996.78
2023-02-18T08:57:50.314Z,996.86
2023-02-18T08:58:50.324Z,996.86
2023-02-18T08:59:50.327Z,996.85
2023-02-18T09:00:50.289Z,996.80
2023-02-18T09:01:50.288Z,996.75
2023-02-18T09:02:50.291Z,996.82
2023-02-18T09:03:50.336Z,996.78
2023-02-18T09:04:50.258Z,996.76
2023-02-18T09:05:50.242Z,996.79
2023-02-18T09:06:50.250Z,996.80
2023-02-18T09:07:50.195Z,996.86
2023-02-18T09:08:50.220Z,996.79
2023-02-18T09:09:50.177Z,996.74
2023-02-18T09:10:50.170Z,996.77
2023-02-18T09:11:50.149Z,996.85
2023-02-18T09:12:50.156Z,996.88
2023-02-18T09:13:50.152Z,996.83
2023-02-18T09:14:50.123Z,996.79
2023-02-18T09:15:50.141Z,996.80
2023-02-18T09:16:50.186Z,996.89
2023-02-18T09:17:50.085Z,996.87
2023-02-18T09:18:50.093Z,996.91
2023-02-18T09:19:50.077Z,996.86
2023-02-18T09:20:50.065Z,996.84
2023-02-18T09:21:50.064Z,996.79
2023-02-18T09:22:50.038Z,996.80
2023-02-18T09:23:50.087Z,996.88
2023-02-18T09:24:50.040Z,996.81
2023-02-18T09:25:50.032Z,996.80
2023-02-18T09:26:50.010Z,996.80
2023-02-18T09:27:49.990Z,996.78
2023-02-18T09:28:50.151Z,996.69
2023-02-18T09:29:49.944Z,996.74
2023-02-18T09:30:49.973Z,996.74
2023-02-18T09:31:50.115Z,996.70
2023-02-18T09:32:54.534Z,996.73
2023-02-18T09:33:49.901Z,996.68
2023-02-18T09:34:59.012Z,996.67
2023-02-18T09:35:50.980Z,996.73
2023-02-18T09:36:51.089Z,996.75
2023-02-18T09:37:50.184Z,996.70
2023-02-18T09:38:50.191Z,996.74
2023-02-18T09:39:50.244Z,996.69
2023-02-18T09:40:49.826Z,996.67
2023-02-18T09:41:49.833Z,996.65
2023-02-18T09:42:49.816Z,996.67
2023-02-18T09:43:49.846Z,996.68
2023-02-18T09:44:49.801Z,996.67
2023-02-18T09:45:49.886Z,996.69
2023-02-18T09:46:49.776Z,996.62
2023-02-18T09:47:49.791Z,996.65
2023-02-18T09:48:49.754Z,996.68
2023-02-18T09:49:49.736Z,996.74
2023-02-18T09:50:49.721Z,996.67
2023-02-18T09:51:49.735Z,996.66
2023-02-18T09:52:49.714Z,996.65
2023-02-18T09:53:49.674Z,996.72
2023-02-18T09:54:49.673Z,996.75
2023-02-18T09:55:49.681Z,996.71
2023-02-18T09:56:49.661Z,996.74
2023-02-18T09:57:49.668Z,996.71
2023-02-18T09:58:49.750Z,996.71
2023-02-18T09:59:49.616Z,996.60
2023-02-18T10:00:49.591Z,996.75
2023-02-18T10:01:49.701Z,996.78
2023-02-18T10:02:49.594Z,996.72
2023-02-18T10:03:49.583Z,996.74
2023-02-18T10:04:49.579Z,996.73
2023-02-18T10:05:49.551Z,996.71
2023-02-18T10:06:49.567Z,996.73
2023-02-18T10:07:49.574Z,996.59
2023-02-18T10:08:49.539Z,996.57
2023-02-18T10:09:49.555Z,996.61
2023-02-18T10:10:49.662Z,996.52
2023-02-18T10:11:49.530Z,996.53
2023-02-18T10:12:49.475Z,996.47
2023-02-18T10:13:49.525Z,996.46
2023-02-18T10:14:49.469Z,996.42
2023-02-18T10:15:49.510Z,996.39
2023-02-18T10:16:49.413Z,996.46
2023-02-18T10:17:49.506Z,996.40
2023-02-18T10:18:49.426Z,996.46
2023-02-18T10:19:49.414Z,996.47
2023-02-18T10:20:49.376Z,996.54
2023-02-18T10:21:49.358Z,996.53
2023-02-18T10:22:49.370Z,996.59
2023-02-18T10:23:49.358Z,996.54
2023-02-18T10:24:49.360Z,996.57
2023-02-18T10:25:49.320Z,996.56
2023-02-18T10:26:49.301Z,996.54
2023-02-18T10:27:49.331Z,996.53
2023-02-18T10:28:49.344Z,996.47
2023-02-18T10:29:49.303Z,996.43
2023-02-18T10:30:49.272Z,996.31
2023-02-18T10:31:49.427Z,996.38
2023-02-18T10:32:49.232Z,996.35
2023-02-18T10:33:49.288Z,996.25
2023-02-18T10:34:49.209Z,996.18
2023-02-18T10:35:49.227Z,996.21
2023-02-18T10:36:49.208Z,996.15
2023-02-18T10:37:49.193Z,996.28
2023-02-18T10:38:49.205Z,996.21
2023-02-18T10:39:49.289Z,996.24
2023-02-18T10:40:49.217Z,996.29
2023-02-18T10:41:49.159Z,996.26
2023-02-18T10:42:49.127Z,996.25
2023-02-18T10:43:49.242Z,996.29
2023-02-18T10:44:49.212Z,996.19
2023-02-18T10:45:49.091Z,996.26
2023-02-18T10:46:49.169Z,996.24
2023-02-18T10:47:49.118Z,996.21
2023-02-18T10:48:49.070Z,996.13
2023-02-18T10:49:49.067Z,996.13
2023-02-18T10:50:49.106Z,996.13
2023-02-18T10:51:49.030Z,996.09
2023-02-18T10:52:49.046Z,996.08
2023-02-18T10:53:49.122Z,996.17
2023-02-18T10:54:49.014Z,996.14
2023-02-18T10:55:49.058Z,996.15
2023-02-18T10:56:48.982Z,996.23
2023-02-18T10:57:48.994Z,996.15
2023-02-18T10:58:48.940Z,996.07
2023-02-18T10:59:48.935Z,996.19
2023-02-18T11:00:48.916Z,996.08
2023-02-18T11:01:49.033Z,996.06
2023-02-18T11:02:48.907Z,996.22
2023-02-18T11:03:48.902Z,996.18
2023-02-18T11:04:48.909Z,996.12
2023-02-18T11:05:49.362Z,996.02
2023-02-18T11:06:48.849Z,996.02
2023-02-18T11:07:48.835Z,996.16
2023-02-18T11:08:48.947Z,996.11
2023-02-18T11:09:48.822Z,996.17
2023-02-18T11:10:48.831Z,996.25
2023-02-18T11:11:53.611Z,996.16
2023-02-18T11:12:49.863Z,996.19
2023-02-18T11:13:48.789Z,996.21
2023-02-18T11:14:48.771Z,996.08
2023-02-18T11:15:48.801Z,996.08
2023-02-18T11:16:48.743Z,996.18
2023-02-18T11:17:48.754Z,996.23
2023-02-18T11:18:48.711Z,996.22
2023-02-18T11:19:48.720Z,996.22
2023-02-18T11:20:48.694Z,996.21
2023-02-18T11:21:48.705Z,996.16
2023-02-18T11:22:48.681Z,996.14
2023-02-18T11:23:48.673Z,996.09
2023-02-18T11:24:48.776Z,995.98
2023-02-18T11:25:48.659Z,996.04
2023-02-18T11:26:48.632Z,996.03
2023-02-18T11:27:48.650Z,996.07
2023-02-18T11:28:48.598Z,996.10
2023-02-18T11:29:48.585Z,996.11
2023-02-18T11:30:48.594Z,996.13
2023-02-18T11:31:48.702Z,996.18
2023-02-18T11:32:48.558Z,996.24
2023-02-18T11:33:48.553Z,996.23
2023-02-18T11:34:48.624Z,996.19
2023-02-18T11:35:48.539Z,996.24
2023-02-18T11:36:48.602Z,996.30
2023-02-18T11:37:48.505Z,996.30
2023-02-18T11:38:48.596Z,996.32
2023-02-18T11:39:48.509Z,996.30
2023-02-18T11:40:48.464Z,996.41
2023-02-18T11:41:48.460Z,996.32
2023-02-18T11:42:48.460Z,996.23
2023-02-18T11:43:48.491Z,996.25
2023-02-18T11:44:48.441Z,996.26
2023-02-18T11:45:48.423Z,996.35
2023-02-18T11:46:48.434Z,996.34
2023-02-18T11:47:48.382Z,996.41
2023-02-18T11:48:48.398Z,996.49
2023-02-18T11:49:48.409Z,996.41
2023-02-18T11:50:48.360Z,996.23
2023-02-18T11:51:48.340Z,996.34
2023-02-18T11:52:48.345Z,996.26
2023-02-18T11:53:48.384Z,996.25
2023-02-18T11:54:48.334Z,996.27
2023-02-18T11:55:48.305Z,996.30
2023-02-18T11:56:48.310Z,996.20
2023-02-18T11:57:48.324Z,996.35
2023-02-18T11:58:48.506Z,996.35
2023-02-18T11:59:48.292Z,996.26
2023-02-18T12:00:48.241Z,996.15
2023-02-18T12:01:48.286Z,996.18
2023-02-18T12:02:48.238Z,996.14
2023-02-18T12:03:48.221Z,996.18
2023-02-18T12:04:48.202Z,996.17
2023-02-18T12:05:48.195Z,996.19
2023-02-18T12:06:48.245Z,996.12
2023-02-18T12:07:48.186Z,996.20
2023-02-18T12:08:48.151Z,996.30
2023-02-18T12:09:48.163Z,996.34
2023-02-18T12:10:48.247Z,996.29
2023-02-18T12:11:48.201Z,996.33
2023-02-18T12:12:48.164Z,996.32
2023-02-18T12:13:48.111Z,996.32
2023-02-18T12:14:48.087Z,996.38
2023-02-18T12:15:48.168Z,996.25
2023-02-18T12:16:48.106Z,996.28
2023-02-18T12:17:48.077Z,996.27
2023-02-18T12:18:48.051Z,996.29
2023-02-18T12:19:48.104Z,996.30
2023-02-18T12:20:48.057Z,996.25
2023-02-18T12:21:48.013Z,996.45